Terminal Aerodrome Forecast
Issued by NWS

Home | Current Version | Previous Version | Text Only | Print | Product List | Glossary On
Versions: 1 2 3 4 5 6 7 8 9 10 11 12 13 14
000
FTUS41 KBTV 180542
TAFRUT
TAF
KRUT 180542Z 1806/1906 VRB03KT P6SM BKN200
     FM181300 14004KT 6SM -SN BR OVC030
      TEMPO 1813/1815 2SM -SN BR BKN025
     FM181500 18004KT 1 1/2SM -SN BR OVC020
     FM181900 20005KT P6SM OVC012
     FM182300 21004KT P6SM VCSH OVC012=

USA.gov is the U.S. government's official web portal to all federal, state and local government web resources and services.